sensor_id;sensor_type;location;lat;lon;timestamp;pressure;altitude;pressure_sealevel;temperature;humidity
75668;BME280;64266;48.798;44.756;2023-06-04T00:00:08;101128.84;;;19.64;84.65
75668;BME280;64266;48.798;44.756;2023-06-04T00:05:10;101166.78;;;19.73;84.70
75668;BME280;64266;48.798;44.756;2023-06-04T00:10:13;101178.63;;;19.67;82.85
75668;BME280;64266;48.798;44.756;2023-06-04T00:15:15;101188.34;;;19.83;81.46
75668;BME280;64266;48.798;44.756;2023-06-04T00:20:18;101166.81;;;19.93;79.29
75668;BME280;64266;48.798;44.756;2023-06-04T00:25:21;101135.59;;;19.87;76.97
75668;BME280;64266;48.798;44.756;2023-06-04T00:30:23;101136.91;;;19.94;76.44
75668;BME280;64266;48.798;44.756;2023-06-04T00:35:26;101139.59;;;19.99;76.28
75668;BME280;64266;48.798;44.756;2023-06-04T00:40:30;101140.41;;;19.95;76.12
75668;BME280;64266;48.798;44.756;2023-06-04T00:45:33;101118.34;;;19.83;77.35
75668;BME280;64266;48.798;44.756;2023-06-04T00:50:37;101118.09;;;19.89;77.62
75668;BME280;64266;48.798;44.756;2023-06-04T00:55:40;101124.53;;;20.03;78.46
75668;BME280;64266;48.798;44.756;2023-06-04T01:00:44;101125.84;;;20.06;78.79
75668;BME280;64266;48.798;44.756;2023-06-04T01:05:48;101120.75;;;20.15;80.15
75668;BME280;64266;48.798;44.756;2023-06-04T01:10:52;101130.97;;;20.18;79.92
75668;BME280;64266;48.798;44.756;2023-06-04T01:15:55;101146.06;;;20.14;79.92
75668;BME280;64266;48.798;44.756;2023-06-04T01:20:59;101186.72;;;20.22;79.57
75668;BME280;64266;48.798;44.756;2023-06-04T01:26:04;101238.41;;;20.24;77.97
75668;BME280;64266;48.798;44.756;2023-06-04T01:31:08;101286.91;;;20.14;77.00
75668;BME280;64266;48.798;44.756;2023-06-04T01:36:11;101306.47;;;19.84;76.18
75668;BME280;64266;48.798;44.756;2023-06-04T01:41:14;101329.59;;;19.65;77.06
75668;BME280;64266;48.798;44.756;2023-06-04T01:46:18;101312.81;;;19.48;77.90
75668;BME280;64266;48.798;44.756;2023-06-04T01:51:21;101311.19;;;19.42;78.54
75668;BME280;64266;48.798;44.756;2023-06-04T01:56:24;101317.38;;;19.47;78.23
75668;BME280;64266;48.798;44.756;2023-06-04T02:01:29;101314.44;;;19.44;78.52
75668;BME280;64266;48.798;44.756;2023-06-04T02:06:31;101298.72;;;19.31;80.67
75668;BME280;64266;48.798;44.756;2023-06-04T02:11:34;101296.50;;;19.18;82.85
75668;BME280;64266;48.798;44.756;2023-06-04T02:16:37;101291.56;;;19.00;85.27
75668;BME280;64266;48.798;44.756;2023-06-04T02:21:40;101279.41;;;18.92;86.86
75668;BME280;64266;48.798;44.756;2023-06-04T02:26:43;101272.13;;;18.82;87.47
75668;BME280;64266;48.798;44.756;2023-06-04T02:31:46;101265.59;;;18.73;89.19
75668;BME280;64266;48.798;44.756;2023-06-04T02:36:49;101258.34;;;18.74;90.05
75668;BME280;64266;48.798;44.756;2023-06-04T02:41:53;101270.72;;;18.80;89.99
75668;BME280;64266;48.798;44.756;2023-06-04T02:46:56;101276.84;;;18.70;90.31
75668;BME280;64266;48.798;44.756;2023-06-04T02:51:59;101281.13;;;18.66;90.34
75668;BME280;64266;48.798;44.756;2023-06-04T02:57:03;101290.75;;;18.62;90.75
75668;BME280;64266;48.798;44.756;2023-06-04T03:02:07;101292.91;;;18.60;90.28
75668;BME280;64266;48.798;44.756;2023-06-04T03:07:10;101294.38;;;18.78;91.51
75668;BME280;64266;48.798;44.756;2023-06-04T03:12:15;101298.28;;;18.97;91.64
75668;BME280;64266;48.798;44.756;2023-06-04T03:17:18;101296.66;;;18.96;91.12
75668;BME280;64266;48.798;44.756;2023-06-04T03:22:20;101288.66;;;19.11;91.51
75668;BME280;64266;48.798;44.756;2023-06-04T03:27:23;101289.50;;;19.17;90.97
75668;BME280;64266;48.798;44.756;2023-06-04T03:32:25;101287.94;;;19.26;92.14
75668;BME280;64266;48.798;44.756;2023-06-04T03:37:29;101310.19;;;19.58;91.26
75668;BME280;64266;48.798;44.756;2023-06-04T03:42:32;101330.94;;;19.73;91.47
75668;BME280;64266;48.798;44.756;2023-06-04T03:47:35;101345.03;;;19.90;89.95
75668;BME280;64266;48.798;44.756;2023-06-04T03:52:38;101348.50;;;19.85;88.91
75668;BME280;64266;48.798;44.756;2023-06-04T03:57:43;101355.50;;;19.96;89.41
75668;BME280;64266;48.798;44.756;2023-06-04T04:02:46;101363.38;;;20.08;89.15
75668;BME280;64266;48.798;44.756;2023-06-04T04:08:02;101377.66;;;20.14;87.94
75668;BME280;64266;48.798;44.756;2023-06-04T04:13:08;101375.22;;;20.12;87.09
75668;BME280;64266;48.798;44.756;2023-06-04T04:18:13;101388.72;;;20.17;86.05
75668;BME280;64266;48.798;44.756;2023-06-04T04:23:20;101381.44;;;20.23;85.50
75668;BME280;64266;48.798;44.756;2023-06-04T04:28:22;101374.16;;;20.13;84.39
75668;BME280;64266;48.798;44.756;2023-06-04T04:33:25;101386.84;;;20.23;83.74
75668;BME280;64266;48.798;44.756;2023-06-04T04:38:29;101385.75;;;20.19;83.26
75668;BME280;64266;48.798;44.756;2023-06-04T04:43:38;101391.75;;;20.36;83.36
75668;BME280;64266;48.798;44.756;2023-06-04T04:48:57;101388.50;;;20.34;82.41
75668;BME280;64266;48.798;44.756;2023-06-04T04:54:00;101402.53;;;20.46;81.83
75668;BME280;64266;48.798;44.756;2023-06-04T04:59:05;101378.84;;;20.48;81.21
75668;BME280;64266;48.798;44.756;2023-06-04T05:04:10;101379.41;;;20.70;79.64
75668;BME280;64266;48.798;44.756;2023-06-04T05:09:15;101381.81;;;20.72;79.52
75668;BME280;64266;48.798;44.756;2023-06-04T05:14:19;101372.09;;;20.81;79.86
75668;BME280;64266;48.798;44.756;2023-06-04T05:19:22;101356.72;;;20.86;78.89
75668;BME280;64266;48.798;44.756;2023-06-04T05:24:26;101350.00;;;20.94;77.88
75668;BME280;64266;48.798;44.756;2023-06-04T05:29:31;101337.84;;;20.96;77.03
75668;BME280;64266;48.798;44.756;2023-06-04T05:34:33;101334.88;;;21.03;76.96
75668;BME280;64266;48.798;44.756;2023-06-04T05:39:40;101342.44;;;21.21;75.50
75668;BME280;64266;48.798;44.756;2023-06-04T05:44:47;101338.34;;;21.34;73.97
75668;BME280;64266;48.798;44.756;2023-06-04T05:49:52;101328.91;;;21.36;72.28
75668;BME280;64266;48.798;44.756;2023-06-04T05:54:55;101311.34;;;21.44;70.34
75668;BME280;64266;48.798;44.756;2023-06-04T05:59:57;101315.28;;;21.72;68.68
75668;BME280;64266;48.798;44.756;2023-06-04T06:05:00;101317.34;;;21.85;66.26
75668;BME280;64266;48.798;44.756;2023-06-04T06:10:05;101314.88;;;21.98;64.99
75668;BME280;64266;48.798;44.756;2023-06-04T06:15:10;101323.91;;;22.23;64.39
75668;BME280;64266;48.798;44.756;2023-06-04T06:20:16;101319.25;;;22.28;62.50
75668;BME280;64266;48.798;44.756;2023-06-04T06:25:21;101336.06;;;22.59;61.90
75668;BME280;64266;48.798;44.756;2023-06-04T06:30:37;101347.78;;;22.83;61.46
75668;BME280;64266;48.798;44.756;2023-06-04T06:35:40;101359.50;;;23.02;61.72
75668;BME280;64266;48.798;44.756;2023-06-04T06:40:42;101355.81;;;23.22;60.72
75668;BME280;64266;48.798;44.756;2023-06-04T06:45:45;101352.13;;;23.37;59.46
75668;BME280;64266;48.798;44.756;2023-06-04T06:50:48;101361.19;;;23.51;59.16
75668;BME280;64266;48.798;44.756;2023-06-04T06:55:50;101359.44;;;23.60;57.69
75668;BME280;64266;48.798;44.756;2023-06-04T07:00:54;101363.25;;;23.59;57.52
75668;BME280;64266;48.798;44.756;2023-06-04T07:05:59;101351.81;;;23.38;57.76
75668;BME280;64266;48.798;44.756;2023-06-04T07:11:03;101369.44;;;23.36;57.03
75668;BME280;64266;48.798;44.756;2023-06-04T07:16:06;101375.97;;;23.35;58.56
75668;BME280;64266;48.798;44.756;2023-06-04T07:21:09;101398.28;;;23.74;57.89
75668;BME280;64266;48.798;44.756;2023-06-04T07:26:12;101394.41;;;24.60;55.22
75668;BME280;64266;48.798;44.756;2023-06-04T07:31:16;101385.22;;;25.53;52.19
75668;BME280;64266;48.798;44.756;2023-06-04T07:36:20;101404.50;;;26.19;50.10
75668;BME280;64266;48.798;44.756;2023-06-04T07:41:23;101397.66;;;26.58;50.09
75668;BME280;64266;48.798;44.756;2023-06-04T07:46:28;101410.00;;;27.08;48.86
75668;BME280;64266;48.798;44.756;2023-06-04T07:51:31;101403.50;;;27.49;46.82
75668;BME280;64266;48.798;44.756;2023-06-04T07:56:34;101408.81;;;27.54;43.69
75668;BME280;64266;48.798;44.756;2023-06-04T08:01:38;101415.72;;;27.60;44.49
75668;BME280;64266;48.798;44.756;2023-06-04T08:06:40;101403.59;;;27.74;43.79
75668;BME280;64266;48.798;44.756;2023-06-04T08:11:44;101414.19;;;27.84;42.66
75668;BME280;64266;48.798;44.756;2023-06-04T08:16:47;101433.28;;;27.84;42.66
75668;BME280;64266;48.798;44.756;2023-06-04T08:22:04;101430.81;;;27.66;42.25
75668;BME280;64266;48.798;44.756;2023-06-04T08:27:20;101432.56;;;27.62;42.52
75668;BME280;64266;48.798;44.756;2023-06-04T08:32:27;101431.72;;;28.00;42.38
75668;BME280;64266;48.798;44.756;2023-06-04T08:37:30;101416.63;;;27.86;41.28
75668;BME280;64266;48.798;44.756;2023-06-04T08:42:41;101433.44;;;27.88;41.00
75668;BME280;64266;48.798;44.756;2023-06-04T08:47:49;101427.06;;;27.92;41.89
75668;BME280;64266;48.798;44.756;2023-06-04T08:52:54;101431.69;;;27.92;41.62
75668;BME280;64266;48.798;44.756;2023-06-04T08:57:59;101424.78;;;27.77;41.53
75668;BME280;64266;48.798;44.756;2023-06-04T09:03:03;101424.72;;;27.69;41.75
75668;BME280;64266;48.798;44.756;2023-06-04T09:08:08;101426.25;;;27.92;41.46
75668;BME280;64266;48.798;44.756;2023-06-04T09:13:14;101423.41;;;28.06;40.96
75668;BME280;64266;48.798;44.756;2023-06-04T09:18:18;101430.81;;;28.14;39.94
75668;BME280;64266;48.798;44.756;2023-06-04T09:23:20;101420.19;;;28.04;40.83
75668;BME280;64266;48.798;44.756;2023-06-04T09:28:29;101423.56;;;28.09;41.44
75668;BME280;64266;48.798;44.756;2023-06-04T09:33:50;101411.72;;;28.22;41.97
75668;BME280;64266;48.798;44.756;2023-06-04T09:38:53;101414.78;;;28.46;40.73
75668;BME280;64266;48.798;44.756;2023-06-04T09:44:00;101405.97;;;28.49;40.84
75668;BME280;64266;48.798;44.756;2023-06-04T09:49:05;101397.78;;;28.32;40.26
75668;BME280;64266;48.798;44.756;2023-06-04T09:54:09;101398.09;;;28.39;40.56
75668;BME280;64266;48.798;44.756;2023-06-04T09:59:13;101406.13;;;28.70;40.27
75668;BME280;64266;48.798;44.756;2023-06-04T10:04:17;101383.31;;;28.49;40.60
75668;BME280;64266;48.798;44.756;2023-06-04T10:09:21;101388.00;;;28.48;39.62
75668;BME280;64266;48.798;44.756;2023-06-04T10:14:34;101388.00;;;28.66;40.53
75668;BME280;64266;48.798;44.756;2023-06-04T10:19:43;101384.16;;;28.67;39.30
75668;BME280;64266;48.798;44.756;2023-06-04T10:24:47;101387.81;;;28.88;39.32
75668;BME280;64266;48.798;44.756;2023-06-04T10:29:50;101372.22;;;28.88;38.04
75668;BME280;64266;48.798;44.756;2023-06-04T10:34:56;101362.44;;;28.70;37.91
75668;BME280;64266;48.798;44.756;2023-06-04T10:39:59;101368.88;;;28.74;38.31
75668;BME280;64266;48.798;44.756;2023-06-04T10:45:05;101366.63;;;28.59;37.94
75668;BME280;64266;48.798;44.756;2023-06-04T10:50:10;101364.88;;;28.55;37.92
75668;BME280;64266;48.798;44.756;2023-06-04T10:55:13;101367.28;;;28.39;38.29
75668;BME280;64266;48.798;44.756;2023-06-04T11:00:17;101328.94;;;28.35;39.22
75668;BME280;64266;48.798;44.756;2023-06-04T11:05:22;101360.84;;;28.61;39.09
75668;BME280;64266;48.798;44.756;2023-06-04T11:10:32;101364.34;;;28.61;38.75
75668;BME280;64266;48.798;44.756;2023-06-04T11:15:44;101369.84;;;28.52;37.30
75668;BME280;64266;48.798;44.756;2023-06-04T11:20:57;101362.31;;;28.41;37.46
75668;BME280;64266;48.798;44.756;2023-06-04T11:26:00;101354.44;;;28.31;37.87
75668;BME280;64266;48.798;44.756;2023-06-04T11:31:03;101357.97;;;28.23;38.02
75668;BME280;64266;48.798;44.756;2023-06-04T11:36:08;101357.66;;;28.16;38.50
75668;BME280;64266;48.798;44.756;2023-06-04T11:41:11;101342.53;;;28.01;38.57
75668;BME280;64266;48.798;44.756;2023-06-04T11:46:15;101352.16;;;27.98;38.76
75668;BME280;64266;48.798;44.756;2023-06-04T11:51:17;101338.84;;;27.97;39.62
75668;BME280;64266;48.798;44.756;2023-06-04T11:56:20;101343.47;;;27.88;37.80
75668;BME280;64266;48.798;44.756;2023-06-04T12:01:23;101330.31;;;27.81;38.94
75668;BME280;64266;48.798;44.756;2023-06-04T12:06:30;101351.81;;;27.83;38.97
75668;BME280;64266;48.798;44.756;2023-06-04T12:11:34;101352.59;;;27.75;40.24
75668;BME280;64266;48.798;44.756;2023-06-04T12:16:37;101352.28;;;27.68;40.78
75668;BME280;64266;48.798;44.756;2023-06-04T12:21:40;101369.72;;;27.58;41.15
75668;BME280;64266;48.798;44.756;2023-06-04T12:26:45;101361.69;;;27.53;40.80
75668;BME280;64266;48.798;44.756;2023-06-04T12:32:02;101348.84;;;27.45;41.40
75668;BME280;64266;48.798;44.756;2023-06-04T12:37:06;101362.00;;;27.52;42.06
75668;BME280;64266;48.798;44.756;2023-06-04T12:42:10;101368.66;;;27.37;40.17
75668;BME280;64266;48.798;44.756;2023-06-04T12:47:12;101368.94;;;27.27;40.95
75668;BME280;64266;48.798;44.756;2023-06-04T12:52:16;101376.81;;;27.28;41.17
75668;BME280;64266;48.798;44.756;2023-06-04T12:57:19;101375.97;;;27.19;41.50
75668;BME280;64266;48.798;44.756;2023-06-04T13:02:22;101356.91;;;27.19;42.04
75668;BME280;64266;48.798;44.756;2023-06-04T13:07:25;101366.81;;;27.15;42.11
75668;BME280;64266;48.798;44.756;2023-06-04T13:12:30;101362.41;;;27.06;41.85
75668;BME280;64266;48.798;44.756;2023-06-04T13:17:32;101366.97;;;26.88;41.48
75668;BME280;64266;48.798;44.756;2023-06-04T13:22:37;101377.53;;;26.89;41.20
75668;BME280;64266;48.798;44.756;2023-06-04T13:27:40;101369.50;;;26.84;41.81
75668;BME280;64266;48.798;44.756;2023-06-04T13:32:43;101380.41;;;26.84;41.15
75668;BME280;64266;48.798;44.756;2023-06-04T13:37:47;101367.81;;;26.75;40.96
75668;BME280;64266;48.798;44.756;2023-06-04T13:42:50;101368.13;;;26.73;40.85
75668;BME280;64266;48.798;44.756;2023-06-04T13:47:52;101379.00;;;26.73;40.13
75668;BME280;64266;48.798;44.756;2023-06-04T13:52:56;101377.09;;;26.74;40.46
75668;BME280;64266;48.798;44.756;2023-06-04T13:57:59;101373.50;;;26.65;41.69
75668;BME280;64266;48.798;44.756;2023-06-04T14:03:03;101383.78;;;26.68;41.92
75668;BME280;64266;48.798;44.756;2023-06-04T14:08:07;101403.94;;;26.67;41.67
75668;BME280;64266;48.798;44.756;2023-06-04T14:13:10;101397.13;;;26.56;42.06
75668;BME280;64266;48.798;44.756;2023-06-04T14:18:13;101382.97;;;26.45;40.98
75668;BME280;64266;48.798;44.756;2023-06-04T14:23:17;101388.41;;;26.45;41.80
75668;BME280;64266;48.798;44.756;2023-06-04T14:28:21;101388.72;;;26.44;41.11
75668;BME280;64266;48.798;44.756;2023-06-04T14:33:24;101387.41;;;26.41;40.86
75668;BME280;64266;48.798;44.756;2023-06-04T14:38:27;101389.94;;;26.37;39.90
75668;BME280;64266;48.798;44.756;2023-06-04T14:43:31;101407.47;;;26.45;40.41
75668;BME280;64266;48.798;44.756;2023-06-04T14:48:34;101399.72;;;26.38;39.57
75668;BME280;64266;48.798;44.756;2023-06-04T14:53:37;101399.53;;;26.35;40.23
75668;BME280;64266;48.798;44.756;2023-06-04T14:58:43;101403.41;;;26.42;40.67
75668;BME280;64266;48.798;44.756;2023-06-04T15:03:46;101392.38;;;26.39;40.43
75668;BME280;64266;48.798;44.756;2023-06-04T15:08:48;101409.47;;;26.39;41.15
75668;BME280;64266;48.798;44.756;2023-06-04T15:13:54;101421.22;;;26.26;41.48
75668;BME280;64266;48.798;44.756;2023-06-04T15:18:57;101415.34;;;26.06;41.99
75668;BME280;64266;48.798;44.756;2023-06-04T15:24:01;101421.25;;;25.99;42.61
75668;BME280;64266;48.798;44.756;2023-06-04T15:29:04;101428.06;;;25.97;42.76
75668;BME280;64266;48.798;44.756;2023-06-04T15:34:08;101425.25;;;25.88;43.16
75668;BME280;64266;48.798;44.756;2023-06-04T15:39:11;101424.69;;;25.77;43.49
75668;BME280;64266;48.798;44.756;2023-06-04T15:44:14;101430.09;;;25.64;44.59
75668;BME280;64266;48.798;44.756;2023-06-04T15:49:18;101436.53;;;25.54;44.63
75668;BME280;64266;48.798;44.756;2023-06-04T15:54:21;101429.88;;;25.47;44.62
75668;BME280;64266;48.798;44.756;2023-06-04T15:59:44;101428.34;;;25.41;45.65
75668;BME280;64266;48.798;44.756;2023-06-04T16:04:49;101410.28;;;25.17;45.94
75668;BME280;64266;48.798;44.756;2023-06-04T16:09:52;101420.94;;;25.14;45.90
75668;BME280;64266;48.798;44.756;2023-06-04T16:14:54;101420.50;;;24.93;46.04
75668;BME280;64266;48.798;44.756;2023-06-04T16:19:57;101425.03;;;24.79;46.15
75668;BME280;64266;48.798;44.756;2023-06-04T16:25:00;101422.69;;;24.72;46.60
75668;BME280;64266;48.798;44.756;2023-06-04T16:30:05;101430.75;;;24.59;47.08
75668;BME280;64266;48.798;44.756;2023-06-04T16:35:08;101446.16;;;24.45;47.67
75668;BME280;64266;48.798;44.756;2023-06-04T16:40:12;101445.06;;;24.27;47.60
75668;BME280;64266;48.798;44.756;2023-06-04T16:45:16;101457.44;;;24.14;47.73
75668;BME280;64266;48.798;44.756;2023-06-04T16:50:18;101460.00;;;24.01;48.03
75668;BME280;64266;48.798;44.756;2023-06-04T16:55:39;101441.56;;;23.79;48.62
75668;BME280;64266;48.798;44.756;2023-06-04T17:00:49;101450.59;;;23.69;48.68
75668;BME280;64266;48.798;44.756;2023-06-04T17:05:51;101454.56;;;23.53;48.88
75668;BME280;64266;48.798;44.756;2023-06-04T17:10:54;101478.16;;;23.53;48.92
75668;BME280;64266;48.798;44.756;2023-06-04T17:15:57;101482.31;;;23.35;49.35
75668;BME280;64266;48.798;44.756;2023-06-04T17:21:00;101491.31;;;23.31;49.45
75668;BME280;64266;48.798;44.756;2023-06-04T17:26:03;101491.13;;;23.17;49.69
75668;BME280;64266;48.798;44.756;2023-06-04T17:31:08;101474.81;;;22.93;50.27
75668;BME280;64266;48.798;44.756;2023-06-04T17:36:14;101497.56;;;22.92;51.31
75668;BME280;64266;48.798;44.756;2023-06-04T17:41:17;101483.63;;;22.75;51.41
75668;BME280;64266;48.798;44.756;2023-06-04T17:46:20;101488.53;;;22.68;52.18
75668;BME280;64266;48.798;44.756;2023-06-04T17:51:23;101477.75;;;22.53;52.98
75668;BME280;64266;48.798;44.756;2023-06-04T17:56:26;101488.13;;;22.36;54.13
75668;BME280;64266;48.798;44.756;2023-06-04T18:01:29;101507.31;;;22.34;55.11
75668;BME280;64266;48.798;44.756;2023-06-04T18:06:32;101496.88;;;22.18;55.66
75668;BME280;64266;48.798;44.756;2023-06-04T18:11:35;101504.16;;;22.12;56.21
75668;BME280;64266;48.798;44.756;2023-06-04T18:16:38;101500.97;;;22.00;56.29
75668;BME280;64266;48.798;44.756;2023-06-04T18:21:41;101513.69;;;21.89;56.51
75668;BME280;64266;48.798;44.756;2023-06-04T18:26:43;101525.00;;;21.81;56.88
75668;BME280;64266;48.798;44.756;2023-06-04T18:31:45;101530.97;;;21.73;57.07
75668;BME280;64266;48.798;44.756;2023-06-04T18:36:49;101536.38;;;21.73;57.02
75668;BME280;64266;48.798;44.756;2023-06-04T18:41:55;101539.91;;;21.63;57.98
75668;BME280;64266;48.798;44.756;2023-06-04T18:46:58;101536.13;;;21.49;58.05
75668;BME280;64266;48.798;44.756;2023-06-04T18:52:04;101527.78;;;21.41;57.96
75668;BME280;64266;48.798;44.756;2023-06-04T18:57:07;101549.63;;;21.39;58.03
75668;BME280;64266;48.798;44.756;2023-06-04T19:02:10;101540.72;;;21.24;58.71
75668;BME280;64266;48.798;44.756;2023-06-04T19:07:12;101544.47;;;21.18;58.69
75668;BME280;64266;48.798;44.756;2023-06-04T19:12:15;101552.84;;;21.11;58.25
75668;BME280;64266;48.798;44.756;2023-06-04T19:17:21;101553.59;;;20.96;57.81
75668;BME280;64266;48.798;44.756;2023-06-04T19:22:25;101555.72;;;20.89;57.21
75668;BME280;64266;48.798;44.756;2023-06-04T19:27:27;101537.91;;;20.83;56.95
75668;BME280;64266;48.798;44.756;2023-06-04T19:32:30;101559.50;;;20.83;56.69
75668;BME280;64266;48.798;44.756;2023-06-04T19:37:33;101563.25;;;20.77;55.92
75668;BME280;64266;48.798;44.756;2023-06-04T19:42:36;101561.59;;;20.66;55.55
75668;BME280;64266;48.798;44.756;2023-06-04T19:47:38;101554.28;;;20.62;55.53
75668;BME280;64266;48.798;44.756;2023-06-04T19:52:41;101546.72;;;20.48;56.00
75668;BME280;64266;48.798;44.756;2023-06-04T19:57:43;101571.22;;;20.52;56.46
75668;BME280;64266;48.798;44.756;2023-06-04T20:02:47;101540.91;;;20.25;55.99
75668;BME280;64266;48.798;44.756;2023-06-04T20:07:49;101566.59;;;20.32;56.28
75668;BME280;64266;48.798;44.756;2023-06-04T20:12:52;101560.28;;;20.22;56.06
75668;BME280;64266;48.798;44.756;2023-06-04T20:17:54;101574.28;;;20.19;56.07
75668;BME280;64266;48.798;44.756;2023-06-04T20:22:56;101569.63;;;20.09;56.20
75668;BME280;64266;48.798;44.756;2023-06-04T20:27:59;101551.22;;;19.91;56.21
75668;BME280;64266;48.798;44.756;2023-06-04T20:33:02;101555.56;;;19.97;56.48
75668;BME280;64266;48.798;44.756;2023-06-04T20:38:05;101543.38;;;19.84;56.16
75668;BME280;64266;48.798;44.756;2023-06-04T20:43:08;101559.28;;;19.86;56.34
75668;BME280;64266;48.798;44.756;2023-06-04T20:48:12;101552.53;;;19.83;56.24
75668;BME280;64266;48.798;44.756;2023-06-04T20:53:14;101543.63;;;19.78;56.24
75668;BME280;64266;48.798;44.756;2023-06-04T20:58:17;101538.16;;;19.68;56.16
75668;BME280;64266;48.798;44.756;2023-06-04T21:03:22;101552.94;;;19.65;56.53
75668;BME280;64266;48.798;44.756;2023-06-04T21:08:25;101546.97;;;19.58;56.41
75668;BME280;64266;48.798;44.756;2023-06-04T21:13:28;101556.31;;;19.51;56.51
75668;BME280;64266;48.798;44.756;2023-06-04T21:18:31;101549.53;;;19.43;56.40
75668;BME280;64266;48.798;44.756;2023-06-04T21:23:34;101544.53;;;19.30;56.84
75668;BME280;64266;48.798;44.756;2023-06-04T21:28:37;101558.50;;;19.27;56.53
75668;BME280;64266;48.798;44.756;2023-06-04T21:33:41;101569.72;;;19.19;56.73
75668;BME280;64266;48.798;44.756;2023-06-04T21:38:45;101574.75;;;19.10;57.13
75668;BME280;64266;48.798;44.756;2023-06-04T21:43:48;101569.06;;;19.07;56.81
75668;BME280;64266;48.798;44.756;2023-06-04T21:48:51;101577.03;;;18.97;56.62
75668;BME280;64266;48.798;44.756;2023-06-04T21:53:54;101586.44;;;18.99;57.20
75668;BME280;64266;48.798;44.756;2023-06-04T21:58:57;101559.06;;;18.75;56.89
75668;BME280;64266;48.798;44.756;2023-06-04T22:04:00;101569.81;;;18.75;56.68
75668;BME280;64266;48.798;44.756;2023-06-04T22:09:03;101576.19;;;18.69;56.73
75668;BME280;64266;48.798;44.756;2023-06-04T22:14:06;101580.47;;;18.70;56.71
75668;BME280;64266;48.798;44.756;2023-06-04T22:19:09;101587.34;;;18.61;55.88
75668;BME280;64266;48.798;44.756;2023-06-04T22:24:12;101591.53;;;18.52;55.74
75668;BME280;64266;48.798;44.756;2023-06-04T22:29:15;101593.66;;;18.50;55.01
75668;BME280;64266;48.798;44.756;2023-06-04T22:34:19;101583.38;;;18.47;54.98
75668;BME280;64266;48.798;44.756;2023-06-04T22:39:22;101578.63;;;18.32;54.07
75668;BME280;64266;48.798;44.756;2023-06-04T22:44:25;101582.44;;;18.36;53.43
75668;BME280;64266;48.798;44.756;2023-06-04T22:49:28;101584.81;;;18.33;53.72
75668;BME280;64266;48.798;44.756;2023-06-04T22:54:31;101592.06;;;18.32;53.96
75668;BME280;64266;48.798;44.756;2023-06-04T22:59:34;101590.94;;;18.28;54.87
75668;BME280;64266;48.798;44.756;2023-06-04T23:04:37;101581.34;;;18.16;54.87
75668;BME280;64266;48.798;44.756;2023-06-04T23:09:41;101585.41;;;18.18;54.77
75668;BME280;64266;48.798;44.756;2023-06-04T23:14:45;101586.56;;;18.06;54.78
75668;BME280;64266;48.798;44.756;2023-06-04T23:19:48;101589.19;;;18.01;54.86
75668;BME280;64266;48.798;44.756;2023-06-04T23:24:51;101585.63;;;17.95;54.67
75668;BME280;64266;48.798;44.756;2023-06-04T23:29:53;101594.97;;;17.93;54.91
75668;BME280;64266;48.798;44.756;2023-06-04T23:34:57;101583.16;;;17.94;54.77
75668;BME280;64266;48.798;44.756;2023-06-04T23:40:02;101579.09;;;17.91;55.21
75668;BME280;64266;48.798;44.756;2023-06-04T23:45:06;101581.47;;;17.87;55.44
75668;BME280;64266;48.798;44.756;2023-06-04T23:50:09;101573.13;;;17.84;56.11
75668;BME280;64266;48.798;44.756;2023-06-04T23:55:12;101568.72;;;17.78;55.75
